createdAt,value
2023-01-10T00:00:04.299Z,99.99
2023-01-10T00:01:04.186Z,99.99
2023-01-10T00:02:04.198Z,99.99
2023-01-10T00:03:04.233Z,99.99
2023-01-10T00:04:04.164Z,99.99
2023-01-10T00:05:04.144Z,99.99
2023-01-10T00:06:04.146Z,99.99
2023-01-10T00:07:04.145Z,99.99
2023-01-10T00:08:04.131Z,99.99
2023-01-10T00:09:04.109Z,99.77
2023-01-10T00:10:04.097Z,99.99
2023-01-10T00:11:04.080Z,99.77
2023-01-10T00:12:04.092Z,99.82
2023-01-10T00:13:04.054Z,99.77
2023-01-10T00:14:04.048Z,99.77
2023-01-10T00:15:04.029Z,99.46
2023-01-10T00:16:04.061Z,99.15
2023-01-10T00:17:04.037Z,99.51
2023-01-10T00:18:04.000Z,99.66
2023-01-10T00:19:03.982Z,99.98
2023-01-10T00:20:03.978Z,99.87
2023-01-10T00:21:03.963Z,99.77
2023-01-10T00:22:03.951Z,99.56
2023-01-10T00:23:03.973Z,99.56
2023-01-10T00:24:03.931Z,99.56
2023-01-10T00:25:03.920Z,99.56
2023-01-10T00:26:03.924Z,99.77
2023-01-10T00:27:03.907Z,99.56
2023-01-10T00:28:03.893Z,99.35
2023-01-10T00:29:03.889Z,98.94
2023-01-10T00:30:03.876Z,98.94
2023-01-10T00:31:03.892Z,98.94
2023-01-10T00:32:03.839Z,99.56
2023-01-10T00:33:03.827Z,99.19
2023-01-10T00:34:03.835Z,99.05
2023-01-10T00:35:03.825Z,99.25
2023-01-10T00:36:03.802Z,99.25
2023-01-10T00:37:03.793Z,99.05
2023-01-10T00:38:03.770Z,98.94
2023-01-10T00:39:03.810Z,98.32
2023-01-10T00:40:03.763Z,98.43
2023-01-10T00:41:03.755Z,98.32
2023-01-10T00:42:03.738Z,98.22
2023-01-10T00:43:03.714Z,98.43
2023-01-10T00:44:03.715Z,98.53
2023-01-10T00:45:03.704Z,98.43
2023-01-10T00:46:03.745Z,98.63
2023-01-10T00:47:03.671Z,98.63
2023-01-10T00:48:03.664Z,98.43
2023-01-10T00:49:03.644Z,98.32
2023-01-10T00:50:03.651Z,98.11
2023-01-10T00:51:03.635Z,97.91
2023-01-10T00:52:03.621Z,97.75
2023-01-10T00:53:03.606Z,97.96
2023-01-10T00:54:03.591Z,98.37
2023-01-10T00:55:03.605Z,98.47
2023-01-10T00:56:03.579Z,98.06
2023-01-10T00:57:03.574Z,98.22
2023-01-10T00:58:03.555Z,97.96
2023-01-10T00:59:03.544Z,98.06
2023-01-10T01:00:03.550Z,97.96
2023-01-10T01:01:03.570Z,98.16
2023-01-10T01:02:03.545Z,98.37
2023-01-10T01:03:03.592Z,98.06
2023-01-10T01:04:03.489Z,98.16
2023-01-10T01:05:03.493Z,98.06
2023-01-10T01:06:03.468Z,98.16
2023-01-10T01:07:03.464Z,98.06
2023-01-10T01:08:03.442Z,98.00
2023-01-10T01:09:03.420Z,98.06
2023-01-10T01:10:03.431Z,97.85
2023-01-10T01:11:03.483Z,98.27
2023-01-10T01:12:03.402Z,98.27
2023-01-10T01:13:03.378Z,97.85
2023-01-10T01:14:03.368Z,98.16
2023-01-10T01:15:03.376Z,98.06
2023-01-10T01:16:03.413Z,98.27
2023-01-10T01:17:03.342Z,98.37
2023-01-10T01:18:03.323Z,98.16
2023-01-10T01:19:03.311Z,98.06
2023-01-10T01:20:03.322Z,98.37
2023-01-10T01:21:03.315Z,98.06
2023-01-10T01:22:03.277Z,98.27
2023-01-10T01:23:03.273Z,97.85
2023-01-10T01:24:03.261Z,98.16
2023-01-10T01:25:03.262Z,98.16
2023-01-10T01:26:03.235Z,98.16
2023-01-10T01:27:03.244Z,98.06
2023-01-10T01:28:03.217Z,97.54
2023-01-10T01:29:03.219Z,97.85
2023-01-10T01:30:03.191Z,98.16
2023-01-10T01:31:03.232Z,98.06
2023-01-10T01:32:03.177Z,98.16
2023-01-10T01:33:03.161Z,97.64
2023-01-10T01:34:03.170Z,97.33
2023-01-10T01:35:03.141Z,97.33
2023-01-10T01:36:03.134Z,97.33
2023-01-10T01:37:03.133Z,97.13
2023-01-10T01:38:03.101Z,97.02
2023-01-10T01:39:03.103Z,97.13
2023-01-10T01:40:03.082Z,97.13
2023-01-10T01:41:03.063Z,96.92
2023-01-10T01:42:03.073Z,96.92
2023-01-10T01:43:03.084Z,97.44
2023-01-10T01:44:03.024Z,96.82
2023-01-10T01:45:03.023Z,96.82
2023-01-10T01:46:03.088Z,96.92
2023-01-10T01:47:02.997Z,97.23
2023-01-10T01:48:02.983Z,97.23
2023-01-10T01:49:02.981Z,97.13
2023-01-10T01:50:02.969Z,97.44
2023-01-10T01:51:02.964Z,97.23
2023-01-10T01:52:02.936Z,96.82
2023-01-10T01:53:02.935Z,97.13
2023-01-10T01:54:02.928Z,97.23
2023-01-10T01:55:02.916Z,97.13
2023-01-10T01:56:02.894Z,96.92
2023-01-10T01:57:02.896Z,96.92
2023-01-10T01:58:02.874Z,97.02
2023-01-10T01:59:02.902Z,96.72
2023-01-10T02:00:02.846Z,97.13
2023-01-10T02:01:02.856Z,96.61
2023-01-10T02:02:02.908Z,96.61
2023-01-10T02:03:03.527Z,96.82
2023-01-10T02:04:02.869Z,96.61
2023-01-10T02:05:02.798Z,96.61
2023-01-10T02:06:02.816Z,96.51
2023-01-10T02:07:02.775Z,96.82
2023-01-10T02:08:02.769Z,96.51
2023-01-10T02:09:02.753Z,96.82
2023-01-10T02:10:02.736Z,96.61
2023-01-10T02:11:02.739Z,96.24
2023-01-10T02:12:02.725Z,95.99
2023-01-10T02:13:02.735Z,96.30
2023-01-10T02:14:02.702Z,96.41
2023-01-10T02:15:02.704Z,96.30
2023-01-10T02:16:02.734Z,96.09
2023-01-10T02:17:02.663Z,96.20
2023-01-10T02:18:02.660Z,96.41
2023-01-10T02:19:02.648Z,95.99
2023-01-10T02:20:02.643Z,96.09
2023-01-10T02:21:02.617Z,95.99
2023-01-10T02:22:02.620Z,95.78
2023-01-10T02:23:02.603Z,96.20
2023-01-10T02:24:02.601Z,96.20
2023-01-10T02:25:02.585Z,96.20
2023-01-10T02:26:02.558Z,95.99
2023-01-10T02:27:02.566Z,96.41
2023-01-10T02:28:02.534Z,96.30
2023-01-10T02:29:02.541Z,96.20
2023-01-10T02:30:02.525Z,96.30
2023-01-10T02:31:02.538Z,96.20
2023-01-10T02:32:02.513Z,96.61
2023-01-10T02:33:05.506Z,96.20
2023-01-10T02:34:02.468Z,96.30
2023-01-10T02:35:02.458Z,96.30
2023-01-10T02:36:02.452Z,95.99
2023-01-10T02:37:02.442Z,96.09
2023-01-10T02:38:02.431Z,95.99
2023-01-10T02:39:02.425Z,96.41
2023-01-10T02:40:02.404Z,96.61
2023-01-10T02:41:02.405Z,96.72
2023-01-10T02:42:02.381Z,96.76
2023-01-10T02:43:02.400Z,96.30
2023-01-10T02:44:02.367Z,96.20
2023-01-10T02:45:02.362Z,95.99
2023-01-10T02:46:02.351Z,96.09
2023-01-10T02:47:02.355Z,96.41
2023-01-10T02:48:02.325Z,96.30
2023-01-10T02:49:02.351Z,96.51
2023-01-10T02:50:02.293Z,96.72
2023-01-10T02:51:02.294Z,96.24
2023-01-10T02:52:02.273Z,96.34
2023-01-10T02:53:02.284Z,96.51
2023-01-10T02:54:02.257Z,96.61
2023-01-10T02:55:02.255Z,96.55
2023-01-10T02:56:02.229Z,96.24
2023-01-10T02:57:02.217Z,96.41
2023-01-10T02:58:02.226Z,96.45
2023-01-10T02:59:02.205Z,96.14
2023-01-10T03:00:02.180Z,96.34
2023-01-10T03:01:02.227Z,96.30
2023-01-10T03:02:02.252Z,96.30
2023-01-10T03:03:02.178Z,96.30
2023-01-10T03:04:02.148Z,96.41
2023-01-10T03:05:02.193Z,96.09
2023-01-10T03:06:02.121Z,96.30
2023-01-10T03:07:02.113Z,96.61
2023-01-10T03:08:02.102Z,96.61
2023-01-10T03:09:02.118Z,96.72
2023-01-10T03:10:02.089Z,96.41
2023-01-10T03:11:02.074Z,96.30
2023-01-10T03:12:02.046Z,96.41
2023-01-10T03:13:02.048Z,95.78
2023-01-10T03:14:02.026Z,96.41
2023-01-10T03:15:02.031Z,95.89
2023-01-10T03:16:02.033Z,96.51
2023-01-10T03:17:03.972Z,95.89
2023-01-10T03:18:01.987Z,96.51
2023-01-10T03:19:01.997Z,96.51
2023-01-10T03:20:01.978Z,95.52
2023-01-10T03:21:01.950Z,96.30
2023-01-10T03:22:01.948Z,96.66
2023-01-10T03:23:01.928Z,96.30
2023-01-10T03:24:01.913Z,96.51
2023-01-10T03:25:01.923Z,95.99
2023-01-10T03:26:01.895Z,96.55
2023-01-10T03:27:02.605Z,95.62
2023-01-10T03:28:01.875Z,95.83
2023-01-10T03:29:01.866Z,96.30
2023-01-10T03:30:01.884Z,96.24
2023-01-10T03:31:01.904Z,96.34
2023-01-10T03:32:01.826Z,96.24
2023-01-10T03:33:01.818Z,96.76
2023-01-10T03:34:01.799Z,96.14
2023-01-10T03:35:01.820Z,95.83
2023-01-10T03:36:01.812Z,96.55
2023-01-10T03:37:01.784Z,96.55
2023-01-10T03:38:01.761Z,96.24
2023-01-10T03:39:01.765Z,96.24
2023-01-10T03:40:01.763Z,96.34
2023-01-10T03:41:01.730Z,96.03
2023-01-10T03:42:01.730Z,96.34
2023-01-10T03:43:01.711Z,96.34
2023-01-10T03:44:01.692Z,96.45
2023-01-10T03:45:01.707Z,96.14
2023-01-10T03:46:01.667Z,96.09
2023-01-10T03:47:01.665Z,96.09
2023-01-10T03:48:01.667Z,96.24
2023-01-10T03:49:01.637Z,96.20
2023-01-10T03:50:01.628Z,96.20
2023-01-10T03:51:01.636Z,96.24
2023-01-10T03:52:01.604Z,96.14
2023-01-10T03:53:01.607Z,96.34
2023-01-10T03:54:01.588Z,96.45
2023-01-10T03:55:01.575Z,96.34
2023-01-10T03:56:01.596Z,96.34
2023-01-10T03:57:02.841Z,96.14
2023-01-10T03:58:01.539Z,96.24
2023-01-10T03:59:01.533Z,96.34
2023-01-10T04:00:01.518Z,96.45
2023-01-10T04:01:01.726Z,96.34
2023-01-10T04:02:01.662Z,96.14
2023-01-10T04:03:01.488Z,96.14
2023-01-10T04:04:01.516Z,96.34
2023-01-10T04:05:01.462Z,96.14
2023-01-10T04:06:01.474Z,96.14
2023-01-10T04:07:01.461Z,96.45
2023-01-10T04:08:01.435Z,96.34
2023-01-10T04:09:01.414Z,96.24
2023-01-10T04:10:01.398Z,96.45
2023-01-10T04:11:01.404Z,96.45
2023-01-10T04:12:01.384Z,96.24
2023-01-10T04:13:01.387Z,96.03
2023-01-10T04:14:01.368Z,96.24
2023-01-10T04:15:01.366Z,96.24
2023-01-10T04:16:01.386Z,96.03
2023-01-10T04:17:01.337Z,96.45
2023-01-10T04:18:01.339Z,96.45
2023-01-10T04:19:01.321Z,96.34
2023-01-10T04:20:01.304Z,96.45
2023-01-10T04:21:01.296Z,96.14
2023-01-10T04:22:01.284Z,96.24
2023-01-10T04:23:01.305Z,96.03
2023-01-10T04:24:01.253Z,95.94
2023-01-10T04:25:01.243Z,96.24
2023-01-10T04:26:01.231Z,96.59
2023-01-10T04:27:01.228Z,96.86
2023-01-10T04:28:01.204Z,96.66
2023-01-10T04:29:01.214Z,96.76
2023-01-10T04:30:01.183Z,96.55
2023-01-10T04:31:01.176Z,97.17
2023-01-10T04:32:01.183Z,96.72
2023-01-10T04:33:01.173Z,96.97
2023-01-10T04:34:01.173Z,96.86
2023-01-10T04:35:01.142Z,97.07
2023-01-10T04:36:01.117Z,97.07
2023-01-10T04:37:01.107Z,97.38
2023-01-10T04:38:01.096Z,98.10
2023-01-10T04:39:01.103Z,98.21
2023-01-10T04:40:01.086Z,98.00
2023-01-10T04:41:01.076Z,98.21
2023-01-10T04:42:01.061Z,98.16
2023-01-10T04:43:01.043Z,98.10
2023-01-10T04:44:01.113Z,97.79
2023-01-10T04:45:01.021Z,98.10
2023-01-10T04:46:01.072Z,98.41
2023-01-10T04:47:01.005Z,98.10
2023-01-10T04:48:00.983Z,98.10
2023-01-10T04:49:00.975Z,98.21
2023-01-10T04:50:00.984Z,98.10
2023-01-10T04:51:00.955Z,98.10
2023-01-10T04:52:00.947Z,98.21
2023-01-10T04:53:00.935Z,98.05
2023-01-10T04:54:00.920Z,98.05
2023-01-10T04:55:00.952Z,97.94
2023-01-10T04:56:00.897Z,97.94
2023-01-10T04:57:00.903Z,98.25
2023-01-10T04:58:00.874Z,98.15
2023-01-10T04:59:00.870Z,97.84
2023-01-10T05:00:00.857Z,98.35
2023-01-10T05:01:00.847Z,98.56
2023-01-10T05:02:01.058Z,98.66
2023-01-10T05:03:00.964Z,98.66
2023-01-10T05:04:00.816Z,98.46
2023-01-10T05:05:00.840Z,98.56
2023-01-10T05:06:00.791Z,98.66
2023-01-10T05:07:00.791Z,98.66
2023-01-10T05:08:00.776Z,98.25
2023-01-10T05:09:00.757Z,98.77
2023-01-10T05:10:00.739Z,98.19
2023-01-10T05:11:00.748Z,97.94
2023-01-10T05:12:00.736Z,98.61
2023-01-10T05:13:00.717Z,98.56
2023-01-10T05:14:00.715Z,98.92
2023-01-10T05:15:00.689Z,98.77
2023-01-10T05:16:00.682Z,98.87
2023-01-10T05:17:00.667Z,98.92
2023-01-10T05:18:00.661Z,98.92
2023-01-10T05:19:00.647Z,98.56
2023-01-10T05:20:00.622Z,98.56
2023-01-10T05:21:00.625Z,98.61
2023-01-10T05:22:00.616Z,98.71
2023-01-10T05:23:00.615Z,98.61
2023-01-10T05:24:00.588Z,98.66
2023-01-10T05:25:00.583Z,98.35
2023-01-10T05:26:00.574Z,98.71
2023-01-10T05:27:00.569Z,98.71
2023-01-10T05:28:00.542Z,98.46
2023-01-10T05:29:00.534Z,98.56
2023-01-10T05:30:00.531Z,98.46
2023-01-10T05:31:00.524Z,98.56
2023-01-10T05:32:00.573Z,98.77
2023-01-10T05:33:00.493Z,98.66
2023-01-10T05:34:00.481Z,98.87
2023-01-10T05:35:00.491Z,98.56
2023-01-10T05:36:00.464Z,98.15
2023-01-10T05:37:00.457Z,98.15
2023-01-10T05:38:00.438Z,98.15
2023-01-10T05:39:00.426Z,98.15
2023-01-10T05:40:00.404Z,98.52
2023-01-10T05:41:00.413Z,98.15
2023-01-10T05:42:00.401Z,98.15
2023-01-10T05:43:00.395Z,98.56
2023-01-10T05:44:00.362Z,98.56
2023-01-10T05:45:00.366Z,98.56
2023-01-10T05:46:00.351Z,98.05
2023-01-10T05:47:00.351Z,98.15
2023-01-10T05:48:00.318Z,98.87
2023-01-10T05:49:00.307Z,98.25
2023-01-10T05:50:00.298Z,98.15
2023-01-10T05:51:00.300Z,98.46
2023-01-10T05:52:00.283Z,98.77
2023-01-10T05:53:00.274Z,98.72
2023-01-10T05:54:00.252Z,98.15
2023-01-10T05:55:00.248Z,98.56
2023-01-10T05:56:00.232Z,98.77
2023-01-10T05:57:00.234Z,98.72
2023-01-10T05:58:00.216Z,98.72
2023-01-10T05:59:07.769Z,98.62
2023-01-10T06:00:01.835Z,98.83
2023-01-10T06:01:00.356Z,98.62
2023-01-10T06:02:00.241Z,98.72
2023-01-10T06:03:00.233Z,98.41
2023-01-10T06:04:00.143Z,98.87
2023-01-10T06:05:00.141Z,98.72
2023-01-10T06:06:00.124Z,98.10
2023-01-10T06:07:00.118Z,98.41
2023-01-10T06:08:00.125Z,98.52
2023-01-10T06:09:00.098Z,98.41
2023-01-10T06:10:00.125Z,98.21
2023-01-10T06:11:00.117Z,98.41
2023-01-10T06:12:00.050Z,98.41
2023-01-10T06:13:00.088Z,98.41
2023-01-10T06:14:00.048Z,98.72
2023-01-10T06:15:00.093Z,98.62
2023-01-10T06:16:00.019Z,98.41
2023-01-10T06:16:59.995Z,98.62
2023-01-10T06:17:59.991Z,98.52
2023-01-10T06:18:59.992Z,98.31
2023-01-10T06:19:59.974Z,98.93
2023-01-10T06:20:59.950Z,98.62
2023-01-10T06:21:59.952Z,98.72
2023-01-10T06:22:59.938Z,98.83
2023-01-10T06:23:59.931Z,98.83
2023-01-10T06:25:02.262Z,98.62
2023-01-10T06:25:59.896Z,98.93
2023-01-10T06:26:59.889Z,98.62
2023-01-10T06:27:59.877Z,98.52
2023-01-10T06:28:59.869Z,98.52
2023-01-10T06:29:59.861Z,98.93
2023-01-10T06:30:59.908Z,98.93
2023-01-10T06:31:59.830Z,98.93
2023-01-10T06:32:59.816Z,98.72
2023-01-10T06:33:59.842Z,98.52
2023-01-10T06:34:59.802Z,98.52
2023-01-10T06:35:59.780Z,98.62
2023-01-10T06:36:59.774Z,98.41
2023-01-10T06:37:59.771Z,98.83
2023-01-10T06:38:59.749Z,98.62
2023-01-10T06:39:59.791Z,98.62
2023-01-10T06:40:59.729Z,98.52
2023-01-10T06:41:59.723Z,98.52
2023-01-10T06:42:59.706Z,98.52
2023-01-10T06:43:59.718Z,98.52
2023-01-10T06:44:59.679Z,98.52
2023-01-10T06:45:59.718Z,98.52
2023-01-10T06:46:59.696Z,98.52
2023-01-10T06:47:59.651Z,98.62
2023-01-10T06:48:59.633Z,98.52
2023-01-10T06:49:59.638Z,98.52
2023-01-10T06:50:59.623Z,98.31
2023-01-10T06:51:59.605Z,98.52
2023-01-10T06:52:59.586Z,98.52
2023-01-10T06:53:59.579Z,98.52
2023-01-10T06:54:59.567Z,98.10
2023-01-10T06:55:59.582Z,98.41
2023-01-10T06:56:59.550Z,98.31
2023-01-10T06:57:59.543Z,98.21
2023-01-10T06:58:59.522Z,98.00
2023-01-10T06:59:59.517Z,98.31
2023-01-10T07:00:59.634Z,98.72
2023-01-10T07:01:59.629Z,98.10
2023-01-10T07:02:59.514Z,98.00
2023-01-10T07:03:59.585Z,98.41
2023-01-10T07:04:59.462Z,97.89
2023-01-10T07:05:59.466Z,98.31
2023-01-10T07:06:59.437Z,98.31
2023-01-10T07:07:59.427Z,98.52
2023-01-10T07:08:59.413Z,97.69
2023-01-10T07:09:59.420Z,98.10
2023-01-10T07:10:59.387Z,98.31
2023-01-10T07:11:59.396Z,98.41
2023-01-10T07:12:59.378Z,98.41
2023-01-10T07:13:59.369Z,98.62
2023-01-10T07:14:59.343Z,98.52
2023-01-10T07:15:59.367Z,98.62
2023-01-10T07:16:59.320Z,98.10
2023-01-10T07:17:59.314Z,97.49
2023-01-10T07:18:59.315Z,98.52
2023-01-10T07:19:59.303Z,98.41
2023-01-10T07:20:59.274Z,97.59
2023-01-10T07:21:59.276Z,97.79
2023-01-10T07:22:59.254Z,98.21
2023-01-10T07:24:00.943Z,98.62
2023-01-10T07:24:59.238Z,98.21
2023-01-10T07:25:59.248Z,98.10
2023-01-10T07:26:59.217Z,98.56
2023-01-10T07:27:59.219Z,98.52
2023-01-10T07:28:59.182Z,97.74
2023-01-10T07:29:59.175Z,98.25
2023-01-10T07:30:59.322Z,97.94
2023-01-10T07:31:59.176Z,98.35
2023-01-10T07:32:59.143Z,98.35
2023-01-10T07:33:59.160Z,98.25
2023-01-10T07:34:59.149Z,97.94
2023-01-10T07:35:59.138Z,97.94
2023-01-10T07:36:59.132Z,97.94
2023-01-10T07:37:59.148Z,98.35
2023-01-10T07:38:59.111Z,98.25
2023-01-10T07:39:59.110Z,98.25
2023-01-10T07:40:59.065Z,98.56
2023-01-10T07:41:59.063Z,98.35
2023-01-10T07:42:59.036Z,97.84
2023-01-10T07:43:59.053Z,98.19
2023-01-10T07:44:59.007Z,98.25
2023-01-10T07:45:59.070Z,98.15
2023-01-10T07:46:59.002Z,98.30
2023-01-10T07:47:59.012Z,98.25
2023-01-10T07:48:58.978Z,98.30
2023-01-10T07:49:58.988Z,98.71
2023-01-10T07:50:58.969Z,98.15
2023-01-10T07:51:58.933Z,97.74
2023-01-10T07:52:58.927Z,98.46
2023-01-10T07:53:58.920Z,98.56
2023-01-10T07:54:58.900Z,98.56
2023-01-10T07:55:58.901Z,98.66
2023-01-10T07:56:58.876Z,98.15
2023-01-10T07:57:58.873Z,98.19
2023-01-10T07:58:58.884Z,98.09
2023-01-10T07:59:58.856Z,98.05
2023-01-10T08:00:58.937Z,97.94
2023-01-10T08:01:58.833Z,98.30
2023-01-10T08:02:58.930Z,97.94
2023-01-10T08:03:58.831Z,98.05
2023-01-10T08:04:58.785Z,98.05
2023-01-10T08:05:58.782Z,98.05
2023-01-10T08:06:58.784Z,98.15
2023-01-10T08:07:58.768Z,98.09
2023-01-10T08:08:58.751Z,98.30
2023-01-10T08:09:58.747Z,98.30
2023-01-10T08:10:58.720Z,98.25
2023-01-10T08:11:58.721Z,98.40
2023-01-10T08:13:03.890Z,98.25
2023-01-10T08:13:59.689Z,98.25
2023-01-10T08:14:58.678Z,98.09
2023-01-10T08:15:58.696Z,98.40
2023-01-10T08:16:58.662Z,98.19
2023-01-10T08:17:58.649Z,98.40
2023-01-10T08:18:58.631Z,98.30
2023-01-10T08:19:58.629Z,98.30
2023-01-10T08:20:58.613Z,98.19
2023-01-10T08:21:58.611Z,98.09
2023-01-10T08:22:58.620Z,98.19
2023-01-10T08:23:58.574Z,98.30
2023-01-10T08:24:58.579Z,98.25
2023-01-10T08:25:58.561Z,98.30
2023-01-10T08:26:58.548Z,98.15
2023-01-10T08:27:58.532Z,98.15
2023-01-10T08:28:58.579Z,97.32
2023-01-10T08:29:58.542Z,97.53
2023-01-10T08:30:58.567Z,97.63
2023-01-10T08:31:58.493Z,97.42
2023-01-10T08:32:58.480Z,97.01
2023-01-10T08:33:58.479Z,96.86
2023-01-10T08:34:58.473Z,96.97
2023-01-10T08:35:58.449Z,96.86
2023-01-10T08:36:58.434Z,96.86
2023-01-10T08:37:58.427Z,96.92
2023-01-10T08:38:58.466Z,97.33
2023-01-10T08:39:58.402Z,95.89
2023-01-10T08:40:58.411Z,96.41
2023-01-10T08:41:58.381Z,95.48
2023-01-10T08:42:58.363Z,95.42
2023-01-10T08:43:58.400Z,96.41
2023-01-10T08:45:00.386Z,96.14
2023-01-10T08:45:58.347Z,95.89
2023-01-10T08:46:58.401Z,96.36
2023-01-10T08:47:58.364Z,95.95
2023-01-10T08:48:58.327Z,95.74
2023-01-10T08:49:58.294Z,95.43
2023-01-10T08:50:58.276Z,94.40
2023-01-10T08:51:58.298Z,94.44
2023-01-10T08:52:58.248Z,95.06
2023-01-10T08:53:58.249Z,95.17
2023-01-10T08:54:58.243Z,95.80
2023-01-10T08:55:58.241Z,94.35
2023-01-10T08:56:58.237Z,94.46
2023-01-10T08:57:58.211Z,94.29
2023-01-10T08:58:58.181Z,94.71
2023-01-10T08:59:58.182Z,94.40
2023-01-10T09:00:58.232Z,94.71
2023-01-10T09:01:58.216Z,95.22
2023-01-10T09:02:58.242Z,94.60
2023-01-10T09:03:58.125Z,95.65
2023-01-10T09:04:58.120Z,94.10
2023-01-10T09:05:58.103Z,93.63
2023-01-10T09:06:58.102Z,93.68
2023-01-10T09:07:58.103Z,94.50
2023-01-10T09:08:58.065Z,94.09
2023-01-10T09:09:58.057Z,94.60
2023-01-10T09:10:58.063Z,95.02
2023-01-10T09:11:58.055Z,95.02
2023-01-10T09:12:58.035Z,95.02
2023-01-10T09:13:58.013Z,95.78
2023-01-10T09:14:57.995Z,95.64
2023-01-10T09:15:58.046Z,95.84
2023-01-10T09:16:57.977Z,95.80
2023-01-10T09:17:57.974Z,95.32
2023-01-10T09:18:57.969Z,95.32
2023-01-10T09:19:57.945Z,94.87
2023-01-10T09:20:57.940Z,95.03
2023-01-10T09:21:57.942Z,94.52
2023-01-10T09:22:57.916Z,94.62
2023-01-10T09:23:57.901Z,93.49
2023-01-10T09:24:57.913Z,93.90
2023-01-10T09:25:57.971Z,93.79
2023-01-10T09:26:57.887Z,93.30
2023-01-10T09:27:57.859Z,92.53
2023-01-10T09:28:57.837Z,91.56
2023-01-10T09:29:57.829Z,90.47
2023-01-10T09:30:57.838Z,90.31
2023-01-10T09:31:57.816Z,91.50
2023-01-10T09:32:57.790Z,90.94
2023-01-10T09:33:57.782Z,89.56
2023-01-10T09:34:57.805Z,89.50
2023-01-10T09:35:57.774Z,89.34
2023-01-10T09:36:57.758Z,89.95
2023-01-10T09:37:57.749Z,89.91
2023-01-10T09:38:57.731Z,89.61
2023-01-10T09:39:57.716Z,89.50
2023-01-10T09:40:57.716Z,89.44
2023-01-10T09:41:57.706Z,90.06
2023-01-10T09:42:57.713Z,90.41
2023-01-10T09:43:59.813Z,91.13
2023-01-10T09:44:57.658Z,90.61
2023-01-10T09:45:57.674Z,91.03
2023-01-10T09:46:57.708Z,91.54
2023-01-10T09:47:57.632Z,91.44
2023-01-10T09:48:57.620Z,91.38
2023-01-10T09:49:57.609Z,92.21
2023-01-10T09:50:57.602Z,92.41
2023-01-10T09:51:59.118Z,92.51
2023-01-10T09:52:57.586Z,92.93
2023-01-10T09:54:10.126Z,93.65
2023-01-10T09:54:58.556Z,93.24
2023-01-10T09:55:57.544Z,93.13
2023-01-10T09:56:57.519Z,93.60
2023-01-10T09:57:57.536Z,92.61
2023-01-10T09:58:57.527Z,92.47
2023-01-10T09:59:57.491Z,92.06
2023-01-10T10:00:57.589Z,92.31
2023-01-10T10:01:57.479Z,92.27
2023-01-10T10:02:57.528Z,92.27
2023-01-10T10:03:57.507Z,92.31
2023-01-10T10:04:57.431Z,92.27
2023-01-10T10:06:10.602Z,92.37
2023-01-10T10:06:58.407Z,92.27
2023-01-10T10:07:57.433Z,92.47
2023-01-10T10:08:57.388Z,92.27
2023-01-10T10:09:57.379Z,92.47
2023-01-10T10:10:57.381Z,92.06
2023-01-10T10:11:57.359Z,91.75
2023-01-10T10:12:57.344Z,91.50
2023-01-10T10:13:57.355Z,91.03
2023-01-10T10:14:57.358Z,91.64
2023-01-10T10:15:59.813Z,92.47
2023-01-10T10:16:57.299Z,92.47
2023-01-10T10:17:57.301Z,92.27
2023-01-10T10:18:57.291Z,92.27
2023-01-10T10:19:57.272Z,92.06
2023-01-10T10:20:57.255Z,92.47
2023-01-10T10:21:57.233Z,91.75
2023-01-10T10:22:57.237Z,91.64
2023-01-10T10:23:57.214Z,91.44
2023-01-10T10:24:57.239Z,91.03
2023-01-10T10:25:57.203Z,91.54
2023-01-10T10:26:57.194Z,91.24
2023-01-10T10:27:57.173Z,91.64
2023-01-10T10:28:57.163Z,91.64
2023-01-10T10:29:57.158Z,91.64
2023-01-10T10:30:57.167Z,91.85
2023-01-10T10:31:57.149Z,91.50
2023-01-10T10:32:57.117Z,91.44
2023-01-10T10:33:57.097Z,91.09
2023-01-10T10:34:57.097Z,91.24
2023-01-10T10:35:57.106Z,91.13
2023-01-10T10:36:57.091Z,91.44
2023-01-10T10:37:57.071Z,91.40
2023-01-10T10:38:57.052Z,91.09
2023-01-10T10:39:57.051Z,91.03
2023-01-10T10:40:57.031Z,90.78
2023-01-10T10:41:57.008Z,90.99
2023-01-10T10:42:57.016Z,91.30
2023-01-10T10:43:57.016Z,90.57
2023-01-10T10:44:57.037Z,91.40
2023-01-10T10:45:57.136Z,91.40
2023-01-10T10:46:56.976Z,91.50
2023-01-10T10:47:56.949Z,91.09
2023-01-10T10:48:56.936Z,91.34
2023-01-10T10:49:56.921Z,90.99
2023-01-10T10:50:56.923Z,90.99
2023-01-10T10:51:56.924Z,91.13
2023-01-10T10:52:56.936Z,91.54
2023-01-10T10:53:56.877Z,90.92
2023-01-10T10:54:56.896Z,91.54
2023-01-10T10:55:56.855Z,91.03
2023-01-10T10:56:56.860Z,91.03
2023-01-10T10:58:00.498Z,90.92
2023-01-10T10:58:56.839Z,90.92
2023-01-10T10:59:56.809Z,90.88
2023-01-10T11:00:56.922Z,90.92
2023-01-10T11:01:57.024Z,91.24
2023-01-10T11:02:56.800Z,90.99
2023-01-10T11:03:56.754Z,90.88
2023-01-10T11:04:56.811Z,91.19
2023-01-10T11:05:56.748Z,90.99
2023-01-10T11:06:56.736Z,91.30
2023-01-10T11:07:56.718Z,90.47
2023-01-10T11:08:56.702Z,90.31
2023-01-10T11:09:56.687Z,90.16
2023-01-10T11:10:56.711Z,90.00
2023-01-10T11:11:56.691Z,90.06
2023-01-10T11:12:56.659Z,90.41
2023-01-10T11:13:56.639Z,90.47
2023-01-10T11:14:56.632Z,90.26
2023-01-10T11:15:56.636Z,90.99
2023-01-10T11:16:56.628Z,90.99
2023-01-10T11:17:56.600Z,90.47
2023-01-10T11:18:56.618Z,90.88
2023-01-10T11:19:56.579Z,90.94
2023-01-10T11:20:56.565Z,90.99
2023-01-10T11:21:56.568Z,90.16
2023-01-10T11:22:56.543Z,90.47
2023-01-10T11:23:56.528Z,91.09
2023-01-10T11:24:56.516Z,90.99
2023-01-10T11:25:56.508Z,90.57
2023-01-10T11:26:56.517Z,90.47
2023-01-10T11:27:56.485Z,89.65
2023-01-10T11:28:56.475Z,89.95
2023-01-10T11:29:56.542Z,90.47
2023-01-10T11:30:56.459Z,90.99
2023-01-10T11:31:56.515Z,91.19
2023-01-10T11:32:56.441Z,91.09
2023-01-10T11:33:56.421Z,90.78
2023-01-10T11:34:56.436Z,91.09
2023-01-10T11:35:56.410Z,90.78
2023-01-10T11:36:56.384Z,91.09
2023-01-10T11:37:56.400Z,90.67
2023-01-10T11:38:56.367Z,90.67
2023-01-10T11:39:56.347Z,91.09
2023-01-10T11:40:56.343Z,91.09
2023-01-10T11:41:56.322Z,91.13
2023-01-10T11:42:59.038Z,90.82
2023-01-10T11:43:56.338Z,90.92
2023-01-10T11:44:56.301Z,91.03
2023-01-10T11:45:56.359Z,91.34
2023-01-10T11:46:56.293Z,90.92
2023-01-10T11:47:56.282Z,91.54
2023-01-10T11:49:05.460Z,90.82
2023-01-10T11:49:57.244Z,91.13
2023-01-10T11:50:56.253Z,91.03
2023-01-10T11:51:56.210Z,91.34
2023-01-10T11:52:56.197Z,91.13
2023-01-10T11:53:56.197Z,90.82
2023-01-10T11:54:58.412Z,91.13
2023-01-10T11:55:56.207Z,91.03
2023-01-10T11:56:56.184Z,91.13
2023-01-10T11:57:56.143Z,91.03
2023-01-10T11:58:56.177Z,91.03
2023-01-10T11:59:56.127Z,90.92
2023-01-10T12:00:58.772Z,91.03
2023-01-10T12:01:56.191Z,91.03
2023-01-10T12:02:56.091Z,90.82
2023-01-10T12:03:56.096Z,91.24
2023-01-10T12:04:56.178Z,91.34
2023-01-10T12:05:56.055Z,91.03
2023-01-10T12:06:56.095Z,91.03
2023-01-10T12:07:56.029Z,91.60
2023-01-10T12:08:56.020Z,91.13
2023-01-10T12:09:56.024Z,91.34
2023-01-10T12:10:56.001Z,91.03
2023-01-10T12:11:55.986Z,91.44
2023-01-10T12:12:56.022Z,91.13
2023-01-10T12:13:55.965Z,90.92
2023-01-10T12:14:55.959Z,90.82
2023-01-10T12:15:55.941Z,90.61
2023-01-10T12:16:55.981Z,90.20
2023-01-10T12:17:55.923Z,90.20
2023-01-10T12:18:55.929Z,89.58
2023-01-10T12:19:55.899Z,90.10
2023-01-10T12:20:55.902Z,90.20
2023-01-10T12:21:55.879Z,90.00
2023-01-10T12:22:58.382Z,89.58
2023-01-10T12:23:55.863Z,90.10
2023-01-10T12:24:55.851Z,91.13
2023-01-10T12:26:10.734Z,91.03
2023-01-10T12:26:56.824Z,90.51
2023-01-10T12:27:55.826Z,90.51
2023-01-10T12:28:57.922Z,89.89
2023-01-10T12:29:55.792Z,89.89
2023-01-10T12:30:55.898Z,89.69
2023-01-10T12:31:55.765Z,90.10
2023-01-10T12:32:55.771Z,89.75
2023-01-10T12:33:55.748Z,89.58
2023-01-10T12:34:58.391Z,89.48
2023-01-10T12:35:55.716Z,90.20
2023-01-10T12:36:55.713Z,90.31
2023-01-10T12:37:55.712Z,89.48
2023-01-10T12:38:55.704Z,89.58
2023-01-10T12:39:55.675Z,90.00
2023-01-10T12:40:58.564Z,90.00
2023-01-10T12:41:55.648Z,89.79
2023-01-10T12:42:55.648Z,90.20
2023-01-10T12:43:55.620Z,89.79
2023-01-10T12:44:55.629Z,89.38
2023-01-10T12:45:55.641Z,90.31
2023-01-10T12:47:13.115Z,90.20
2023-01-10T12:47:56.599Z,90.20
2023-01-10T12:48:55.572Z,89.58
2023-01-10T12:49:55.572Z,90.20
2023-01-10T12:50:55.553Z,90.06
2023-01-10T12:51:55.536Z,89.79